sensor_id;sensor_type;location;lat;lon;timestamp;pressure;altitude;pressure_sealevel;temperature;humidity
76122;BME280;64853;53.200;6.080;2023-03-03T00:02:23;102683.13;;;17.47;39.58
76122;BME280;64853;53.200;6.080;2023-03-03T00:07:15;102683.59;;;17.44;39.66
76122;BME280;64853;53.200;6.080;2023-03-03T00:12:20;102673.53;;;17.38;39.67
76122;BME280;64853;53.200;6.080;2023-03-03T00:17:20;102672.72;;;17.37;39.58
76122;BME280;64853;53.200;6.080;2023-03-03T00:22:16;102680.59;;;17.34;39.69
76122;BME280;64853;53.200;6.080;2023-03-03T00:27:25;102678.31;;;17.30;39.49
76122;BME280;64853;53.200;6.080;2023-03-03T00:32:23;102676.66;;;17.29;39.47
76122;BME280;64853;53.200;6.080;2023-03-03T00:37:24;102676.25;;;17.26;39.46
76122;BME280;64853;53.200;6.080;2023-03-03T00:42:18;102665.38;;;17.19;39.26
76122;BME280;64853;53.200;6.080;2023-03-03T00:47:26;102665.84;;;17.16;39.55
76122;BME280;64853;53.200;6.080;2023-03-03T00:52:19;102666.94;;;17.15;39.45
76122;BME280;64853;53.200;6.080;2023-03-03T00:57:11;102671.78;;;17.13;39.25
76122;BME280;64853;53.200;6.080;2023-03-03T01:02:06;102666.75;;;17.10;39.17
76122;BME280;64853;53.200;6.080;2023-03-03T01:06:58;102672.72;;;17.07;38.97
76122;BME280;64853;53.200;6.080;2023-03-03T01:11:51;102667.94;;;17.02;39.13
76122;BME280;64853;53.200;6.080;2023-03-03T01:16:43;102665.69;;;16.99;39.03
76122;BME280;64853;53.200;6.080;2023-03-03T01:21:36;102668.66;;;16.98;39.07
76122;BME280;64853;53.200;6.080;2023-03-03T01:26:28;102657.03;;;16.95;39.04
76122;BME280;64853;53.200;6.080;2023-03-03T01:31:20;102660.25;;;16.92;39.03
76122;BME280;64853;53.200;6.080;2023-03-03T01:36:12;102658.59;;;16.91;38.84
76122;BME280;64853;53.200;6.080;2023-03-03T01:41:06;102658.44;;;16.86;39.20
76122;BME280;64853;53.200;6.080;2023-03-03T01:46:26;102648.41;;;16.92;39.12
76122;BME280;64853;53.200;6.080;2023-03-03T01:51:22;102648.75;;;16.95;38.89
76122;BME280;64853;53.200;6.080;2023-03-03T01:56:18;102631.59;;;16.82;38.91
76122;BME280;64853;53.200;6.080;2023-03-03T02:01:13;102638.09;;;16.87;39.09
76122;BME280;64853;53.200;6.080;2023-03-03T02:06:09;102644.19;;;16.89;38.62
76122;BME280;64853;53.200;6.080;2023-03-03T02:11:03;102627.09;;;16.87;38.94
76122;BME280;64853;53.200;6.080;2023-03-03T02:15:57;102647.34;;;16.93;38.83
76122;BME280;64853;53.200;6.080;2023-03-03T02:20:54;102631.59;;;16.82;38.62
76122;BME280;64853;53.200;6.080;2023-03-03T02:26:05;102636.44;;;16.98;38.56
76122;BME280;64853;53.200;6.080;2023-03-03T02:30:59;102643.50;;;16.94;38.77
76122;BME280;64853;53.200;6.080;2023-03-03T02:35:51;102644.59;;;16.93;38.44
76122;BME280;64853;53.200;6.080;2023-03-03T02:40:48;102620.97;;;16.85;38.40
76122;BME280;64853;53.200;6.080;2023-03-03T02:45:45;102643.25;;;16.95;38.30
76122;BME280;64853;53.200;6.080;2023-03-03T02:50:37;102641.59;;;16.94;38.32
76122;BME280;64853;53.200;6.080;2023-03-03T02:55:29;102641.38;;;16.96;38.25
76122;BME280;64853;53.200;6.080;2023-03-03T03:00:21;102652.63;;;16.94;38.24
76122;BME280;64853;53.200;6.080;2023-03-03T03:05:14;102652.84;;;16.93;38.15
76122;BME280;64853;53.200;6.080;2023-03-03T03:10:06;102643.13;;;16.90;38.28
76122;BME280;64853;53.200;6.080;2023-03-03T03:14:58;102645.41;;;16.93;38.31
76122;BME280;64853;53.200;6.080;2023-03-03T03:19:50;102650.91;;;16.93;37.96
76122;BME280;64853;53.200;6.080;2023-03-03T03:24:43;102634.03;;;16.90;38.17
76122;BME280;64853;53.200;6.080;2023-03-03T03:29:35;102650.34;;;16.91;38.26
76122;BME280;64853;53.200;6.080;2023-03-03T03:34:27;102648.41;;;16.92;38.13
76122;BME280;64853;53.200;6.080;2023-03-03T03:39:19;102646.25;;;16.94;37.91
76122;BME280;64853;53.200;6.080;2023-03-03T03:44:12;102651.16;;;16.92;37.90
76122;BME280;64853;53.200;6.080;2023-03-03T03:49:04;102655.38;;;16.94;37.95
76122;BME280;64853;53.200;6.080;2023-03-03T03:53:56;102648.16;;;16.93;37.89
76122;BME280;64853;53.200;6.080;2023-03-03T03:58:48;102646.72;;;16.91;37.89
76122;BME280;64853;53.200;6.080;2023-03-03T04:03:41;102634.88;;;16.90;37.87
76122;BME280;64853;53.200;6.080;2023-03-03T04:08:33;102639.31;;;16.91;37.92
76122;BME280;64853;53.200;6.080;2023-03-03T04:13:25;102617.84;;;16.82;37.88
76122;BME280;64853;53.200;6.080;2023-03-03T04:18:18;102632.72;;;16.92;37.87
76122;BME280;64853;53.200;6.080;2023-03-03T04:23:11;102635.69;;;16.91;37.79
76122;BME280;64853;53.200;6.080;2023-03-03T04:28:04;102623.84;;;16.90;37.71
76122;BME280;64853;53.200;6.080;2023-03-03T04:32:55;102623.84;;;16.90;37.56
76122;BME280;64853;53.200;6.080;2023-03-03T04:37:47;102629.25;;;16.97;37.64
76122;BME280;64853;53.200;6.080;2023-03-03T04:42:41;102604.47;;;16.97;37.80
76122;BME280;64853;53.200;6.080;2023-03-03T04:47:33;102635.91;;;17.31;37.34
76122;BME280;64853;53.200;6.080;2023-03-03T04:52:25;102638.19;;;17.46;37.25
76122;BME280;64853;53.200;6.080;2023-03-03T04:57:17;102638.53;;;17.62;37.16
76122;BME280;64853;53.200;6.080;2023-03-03T05:02:10;102625.09;;;17.77;37.08
76122;BME280;64853;53.200;6.080;2023-03-03T05:07:03;102631.69;;;17.88;37.02
76122;BME280;64853;53.200;6.080;2023-03-03T05:11:55;102636.38;;;17.99;36.91
76122;BME280;64853;53.200;6.080;2023-03-03T05:16:47;102637.19;;;18.12;36.71
76122;BME280;64853;53.200;6.080;2023-03-03T05:21:40;102636.78;;;18.20;36.63
76122;BME280;64853;53.200;6.080;2023-03-03T05:26:32;102638.06;;;18.29;36.80
76122;BME280;64853;53.200;6.080;2023-03-03T05:31:24;102634.31;;;18.35;36.46
76122;BME280;64853;53.200;6.080;2023-03-03T05:36:16;102623.47;;;18.46;36.49
76122;BME280;64853;53.200;6.080;2023-03-03T05:41:09;102632.19;;;18.54;36.55
76122;BME280;64853;53.200;6.080;2023-03-03T05:46:01;102627.34;;;18.62;36.33
76122;BME280;64853;53.200;6.080;2023-03-03T05:50:53;102606.84;;;18.57;36.44
76122;BME280;64853;53.200;6.080;2023-03-03T05:55:44;102623.56;;;18.80;36.11
76122;BME280;64853;53.200;6.080;2023-03-03T06:00:38;102624.25;;;18.87;36.04
76122;BME280;64853;53.200;6.080;2023-03-03T06:05:29;102631.53;;;18.93;36.17
76122;BME280;64853;53.200;6.080;2023-03-03T06:10:21;102633.28;;;18.99;35.90
76122;BME280;64853;53.200;6.080;2023-03-03T06:15:13;102635.31;;;19.04;35.91
76122;BME280;64853;53.200;6.080;2023-03-03T06:20:08;102632.94;;;19.13;35.87
76122;BME280;64853;53.200;6.080;2023-03-03T06:25:00;102625.91;;;19.05;35.70
76122;BME280;64853;53.200;6.080;2023-03-03T06:29:52;102641.75;;;19.26;35.87
76122;BME280;64853;53.200;6.080;2023-03-03T06:34:44;102648.66;;;19.29;35.49
76122;BME280;64853;53.200;6.080;2023-03-03T06:39:38;102648.16;;;19.32;35.57
76122;BME280;64853;53.200;6.080;2023-03-03T06:44:30;102623.06;;;19.17;35.65
76122;BME280;64853;53.200;6.080;2023-03-03T06:49:22;102655.44;;;19.38;35.88
76122;BME280;64853;53.200;6.080;2023-03-03T06:54:16;102651.88;;;19.38;35.82
76122;BME280;64853;53.200;6.080;2023-03-03T06:59:12;102659.72;;;19.29;35.88
76122;BME280;64853;53.200;6.080;2023-03-03T07:04:13;102652.63;;;19.16;35.74
76122;BME280;64853;53.200;6.080;2023-03-03T07:09:14;102674.03;;;19.26;35.61
76122;BME280;64853;53.200;6.080;2023-03-03T07:14:14;102674.97;;;19.32;35.77
76122;BME280;64853;53.200;6.080;2023-03-03T07:19:16;102681.44;;;19.37;36.77
76122;BME280;64853;53.200;6.080;2023-03-03T07:24:23;102681.50;;;19.42;37.66
76122;BME280;64853;53.200;6.080;2023-03-03T07:29:22;102682.16;;;19.50;37.84
76122;BME280;64853;53.200;6.080;2023-03-03T07:34:19;102677.91;;;19.42;37.09
76122;BME280;64853;53.200;6.080;2023-03-03T07:39:23;102688.78;;;19.65;37.65
76122;BME280;64853;53.200;6.080;2023-03-03T07:44:20;102691.22;;;19.62;37.25
76122;BME280;64853;53.200;6.080;2023-03-03T07:49:21;102701.72;;;19.60;38.08
76122;BME280;64853;53.200;6.080;2023-03-03T07:54:29;102697.28;;;19.59;37.44
76122;BME280;64853;53.200;6.080;2023-03-03T07:59:24;102691.06;;;19.52;37.49
76122;BME280;64853;53.200;6.080;2023-03-03T08:04:19;102691.56;;;19.48;37.31
76122;BME280;64853;53.200;6.080;2023-03-03T08:09:46;102707.03;;;19.50;36.98
76122;BME280;64853;53.200;6.080;2023-03-03T08:14:40;102701.94;;;19.41;37.43
76122;BME280;64853;53.200;6.080;2023-03-03T08:19:33;102712.09;;;19.36;37.46
76122;BME280;64853;53.200;6.080;2023-03-03T08:24:24;102707.06;;;19.33;37.05
76122;BME280;64853;53.200;6.080;2023-03-03T08:29:16;102718.38;;;19.31;37.24
76122;BME280;64853;53.200;6.080;2023-03-03T08:34:10;102681.00;;;19.11;37.01
76122;BME280;64853;53.200;6.080;2023-03-03T08:39:03;102684.88;;;19.10;38.73
76122;BME280;64853;53.200;6.080;2023-03-03T08:43:55;102703.63;;;19.25;38.59
76122;BME280;64853;53.200;6.080;2023-03-03T08:48:47;102704.13;;;19.22;39.61
76122;BME280;64853;53.200;6.080;2023-03-03T08:53:40;102695.50;;;19.19;39.35
76122;BME280;64853;53.200;6.080;2023-03-03T08:58:32;102702.97;;;19.18;38.61
76122;BME280;64853;53.200;6.080;2023-03-03T09:03:23;102696.50;;;19.13;38.35
76122;BME280;64853;53.200;6.080;2023-03-03T09:08:15;102709.66;;;19.22;38.14
76122;BME280;64853;53.200;6.080;2023-03-03T09:13:13;102704.44;;;19.26;38.74
76122;BME280;64853;53.200;6.080;2023-03-03T09:18:13;102704.44;;;19.26;38.15
76122;BME280;64853;53.200;6.080;2023-03-03T09:23:29;102708.31;;;19.25;38.50
76122;BME280;64853;53.200;6.080;2023-03-03T09:28:24;102711.09;;;19.25;38.47
76122;BME280;64853;53.200;6.080;2023-03-03T09:33:39;102712.66;;;19.21;38.41
76122;BME280;64853;53.200;6.080;2023-03-03T09:38:34;102712.00;;;19.14;37.75
76122;BME280;64853;53.200;6.080;2023-03-03T09:43:36;102709.28;;;19.02;37.33
76122;BME280;64853;53.200;6.080;2023-03-03T09:48:43;102715.31;;;18.99;35.44
76122;BME280;64853;53.200;6.080;2023-03-03T09:53:46;102720.31;;;18.44;32.77
76122;BME280;64853;53.200;6.080;2023-03-03T09:58:57;102733.00;;;18.05;32.99
76122;BME280;64853;53.200;6.080;2023-03-03T10:04:13;102729.03;;;18.00;34.29
76122;BME280;64853;53.200;6.080;2023-03-03T10:09:32;102723.47;;;18.24;35.38
76122;BME280;64853;53.200;6.080;2023-03-03T10:14:48;102723.47;;;18.36;36.61
76122;BME280;64853;53.200;6.080;2023-03-03T10:19:51;102721.88;;;18.40;36.81
76122;BME280;64853;53.200;6.080;2023-03-03T10:25:01;102724.16;;;18.43;37.10
76122;BME280;64853;53.200;6.080;2023-03-03T10:30:00;102725.59;;;18.46;37.00
76122;BME280;64853;53.200;6.080;2023-03-03T10:35:02;102729.19;;;18.46;37.49
76122;BME280;64853;53.200;6.080;2023-03-03T10:40:07;102728.38;;;18.46;37.51
76122;BME280;64853;53.200;6.080;2023-03-03T10:50:32;102731.22;;;18.51;38.28
76122;BME280;64853;53.200;6.080;2023-03-03T10:55:35;102728.56;;;18.56;38.60
76122;BME280;64853;53.200;6.080;2023-03-03T11:00:33;102712.38;;;18.48;38.68
76122;BME280;64853;53.200;6.080;2023-03-03T11:05:35;102710.81;;;18.52;38.66
76122;BME280;64853;53.200;6.080;2023-03-03T11:10:33;102733.09;;;18.62;38.94
76122;BME280;64853;53.200;6.080;2023-03-03T11:15:36;102727.38;;;18.52;39.10
76122;BME280;64853;53.200;6.080;2023-03-03T11:20:38;102722.28;;;18.72;38.97
76122;BME280;64853;53.200;6.080;2023-03-03T11:25:35;102726.00;;;18.66;37.00
76122;BME280;64853;53.200;6.080;2023-03-03T11:30:32;102727.97;;;18.01;35.77
76122;BME280;64853;53.200;6.080;2023-03-03T11:35:29;102722.81;;;18.05;36.15
76122;BME280;64853;53.200;6.080;2023-03-03T11:40:30;102721.59;;;18.25;36.56
76122;BME280;64853;53.200;6.080;2023-03-03T11:45:29;102726.81;;;18.38;37.34
76122;BME280;64853;53.200;6.080;2023-03-03T11:50:28;102728.06;;;18.59;37.08
76122;BME280;64853;53.200;6.080;2023-03-03T11:55:29;102711.47;;;18.71;39.58
76122;BME280;64853;53.200;6.080;2023-03-03T12:00:27;102718.66;;;18.84;38.50
76122;BME280;64853;53.200;6.080;2023-03-03T12:05:38;102713.78;;;18.91;38.05
76122;BME280;64853;53.200;6.080;2023-03-03T12:10:35;102689.34;;;18.83;38.15
76122;BME280;64853;53.200;6.080;2023-03-03T12:15:37;102693.88;;;18.89;37.81
76122;BME280;64853;53.200;6.080;2023-03-03T12:20:44;102691.84;;;18.84;38.29
76122;BME280;64853;53.200;6.080;2023-03-03T12:25:42;102693.97;;;18.94;38.91
76122;BME280;64853;53.200;6.080;2023-03-03T12:35:58;102690.88;;;18.90;36.00
76122;BME280;64853;53.200;6.080;2023-03-03T12:40:59;102688.38;;;18.77;38.57
76122;BME280;64853;53.200;6.080;2023-03-03T12:45:58;102687.94;;;18.68;38.06
76122;BME280;64853;53.200;6.080;2023-03-03T12:51:01;102671.19;;;18.58;38.34
76122;BME280;64853;53.200;6.080;2023-03-03T12:56:02;102674.94;;;18.81;38.12
76122;BME280;64853;53.200;6.080;2023-03-03T13:01:01;102672.31;;;18.74;38.17
76122;BME280;64853;53.200;6.080;2023-03-03T13:05:59;102668.38;;;18.70;38.20
76122;BME280;64853;53.200;6.080;2023-03-03T13:11:00;102666.59;;;18.64;38.09
76122;BME280;64853;53.200;6.080;2023-03-03T13:16:01;102658.31;;;18.64;38.40
76122;BME280;64853;53.200;6.080;2023-03-03T13:20:57;102667.28;;;18.71;38.79
76122;BME280;64853;53.200;6.080;2023-03-03T13:25:54;102664.97;;;18.80;39.01
76122;BME280;64853;53.200;6.080;2023-03-03T13:30:51;102660.72;;;18.89;38.36
76122;BME280;64853;53.200;6.080;2023-03-03T13:35:47;102662.16;;;18.91;39.32
76122;BME280;64853;53.200;6.080;2023-03-03T13:40:44;102655.03;;;18.96;38.76
76122;BME280;64853;53.200;6.080;2023-03-03T13:45:46;102639.31;;;18.96;39.06
76122;BME280;64853;53.200;6.080;2023-03-03T13:50:45;102649.13;;;19.04;38.59
76122;BME280;64853;53.200;6.080;2023-03-03T13:55:42;102646.69;;;19.07;38.90
76122;BME280;64853;53.200;6.080;2023-03-03T14:00:43;102611.69;;;18.96;39.75
76122;BME280;64853;53.200;6.080;2023-03-03T14:05:43;102647.09;;;19.16;39.77
76122;BME280;64853;53.200;6.080;2023-03-03T14:10:42;102635.13;;;19.10;39.00
76122;BME280;64853;53.200;6.080;2023-03-03T14:15:51;102636.31;;;18.98;39.20
76122;BME280;64853;53.200;6.080;2023-03-03T14:20:47;102617.72;;;18.93;39.82
76122;BME280;64853;53.200;6.080;2023-03-03T14:26:05;102615.03;;;18.98;39.56
76122;BME280;64853;53.200;6.080;2023-03-03T14:31:09;102616.22;;;19.02;39.62
76122;BME280;64853;53.200;6.080;2023-03-03T14:36:11;102620.72;;;18.91;40.20
76122;BME280;64853;53.200;6.080;2023-03-03T14:41:12;102613.19;;;18.87;41.20
76122;BME280;64853;53.200;6.080;2023-03-03T14:46:30;102599.47;;;18.92;41.73
76122;BME280;64853;53.200;6.080;2023-03-03T14:51:26;102602.31;;;18.97;41.39
76122;BME280;64853;53.200;6.080;2023-03-03T14:56:22;102601.66;;;18.90;41.79
76122;BME280;64853;53.200;6.080;2023-03-03T15:01:20;102601.81;;;18.83;41.80
76122;BME280;64853;53.200;6.080;2023-03-03T15:06:32;102553.56;;;18.57;42.02
76122;BME280;64853;53.200;6.080;2023-03-03T15:11:26;102603.41;;;18.96;41.94
76122;BME280;64853;53.200;6.080;2023-03-03T15:16:24;102590.09;;;18.93;40.98
76122;BME280;64853;53.200;6.080;2023-03-03T15:21:24;102588.59;;;18.85;41.24
76122;BME280;64853;53.200;6.080;2023-03-03T15:26:27;102578.34;;;18.69;41.20
76122;BME280;64853;53.200;6.080;2023-03-03T15:31:30;102568.94;;;18.82;41.10
76122;BME280;64853;53.200;6.080;2023-03-03T15:36:31;102560.25;;;18.78;40.74
76122;BME280;64853;53.200;6.080;2023-03-03T15:41:36;102558.75;;;18.70;40.93
76122;BME280;64853;53.200;6.080;2023-03-03T15:46:38;102545.53;;;18.72;42.09
76122;BME280;64853;53.200;6.080;2023-03-03T15:51:46;102536.66;;;18.70;41.61
76122;BME280;64853;53.200;6.080;2023-03-03T15:56:47;102531.47;;;18.57;43.08
76122;BME280;64853;53.200;6.080;2023-03-03T16:01:46;102549.47;;;18.76;42.53
76122;BME280;64853;53.200;6.080;2023-03-03T16:06:47;102564.63;;;18.91;42.03
76122;BME280;64853;53.200;6.080;2023-03-03T16:11:46;102561.97;;;18.96;41.79
76122;BME280;64853;53.200;6.080;2023-03-03T16:16:45;102533.50;;;18.79;41.68
76122;BME280;64853;53.200;6.080;2023-03-03T16:21:53;102554.78;;;18.95;41.44
76122;BME280;64853;53.200;6.080;2023-03-03T16:26:57;102567.66;;;19.06;41.62
76122;BME280;64853;53.200;6.080;2023-03-03T16:31:55;102571.53;;;19.05;41.16
76122;BME280;64853;53.200;6.080;2023-03-03T16:36:56;102581.53;;;19.11;40.93
76122;BME280;64853;53.200;6.080;2023-03-03T16:41:56;102579.38;;;19.14;40.84
76122;BME280;64853;53.200;6.080;2023-03-03T16:46:51;102582.72;;;19.16;40.71
76122;BME280;64853;53.200;6.080;2023-03-03T16:51:47;102583.28;;;19.18;40.65
76122;BME280;64853;53.200;6.080;2023-03-03T16:56:43;102583.53;;;19.16;41.26
76122;BME280;64853;53.200;6.080;2023-03-03T17:01:46;102569.66;;;19.11;41.16
76122;BME280;64853;53.200;6.080;2023-03-03T17:06:47;102577.19;;;19.16;41.07
76122;BME280;64853;53.200;6.080;2023-03-03T17:11:49;102588.25;;;19.16;41.44
76122;BME280;64853;53.200;6.080;2023-03-03T17:16:53;102587.28;;;19.27;41.54
76122;BME280;64853;53.200;6.080;2023-03-03T17:22:00;102582.50;;;19.39;41.57
76122;BME280;64853;53.200;6.080;2023-03-03T17:27:02;102584.69;;;19.37;41.28
76122;BME280;64853;53.200;6.080;2023-03-03T17:32:12;102587.88;;;19.29;40.90
76122;BME280;64853;53.200;6.080;2023-03-03T17:37:17;102589.22;;;19.26;40.75
76122;BME280;64853;53.200;6.080;2023-03-03T17:42:18;102595.41;;;19.34;40.54
76122;BME280;64853;53.200;6.080;2023-03-03T17:47:19;102603.63;;;19.28;40.58
76122;BME280;64853;53.200;6.080;2023-03-03T17:52:46;102587.16;;;19.17;40.63
76122;BME280;64853;53.200;6.080;2023-03-03T17:57:56;102597.03;;;19.29;41.56
76122;BME280;64853;53.200;6.080;2023-03-03T18:03:24;102596.94;;;19.24;40.86
76122;BME280;64853;53.200;6.080;2023-03-03T18:08:54;102598.78;;;19.19;40.56
76122;BME280;64853;53.200;6.080;2023-03-03T18:14:20;102607.56;;;19.16;40.98
76122;BME280;64853;53.200;6.080;2023-03-03T18:19:30;102608.84;;;19.25;41.47
76122;BME280;64853;53.200;6.080;2023-03-03T18:24:33;102609.34;;;19.22;41.85
76122;BME280;64853;53.200;6.080;2023-03-03T18:29:27;102611.03;;;19.23;42.81
76122;BME280;64853;53.200;6.080;2023-03-03T18:34:34;102589.06;;;19.16;41.42
76122;BME280;64853;53.200;6.080;2023-03-03T18:39:38;102613.84;;;19.28;41.09
76122;BME280;64853;53.200;6.080;2023-03-03T18:44:32;102618.06;;;19.14;41.47
76122;BME280;64853;53.200;6.080;2023-03-03T18:50:14;102619.31;;;19.23;41.42
76122;BME280;64853;53.200;6.080;2023-03-03T18:55:25;102619.81;;;19.20;41.13
76122;BME280;64853;53.200;6.080;2023-03-03T19:00:24;102626.66;;;19.17;41.34
76122;BME280;64853;53.200;6.080;2023-03-03T19:05:22;102588.59;;;19.02;40.74
76122;BME280;64853;53.200;6.080;2023-03-03T19:10:49;102623.66;;;19.19;40.80
76122;BME280;64853;53.200;6.080;2023-03-03T19:15:54;102630.63;;;19.21;40.59
76122;BME280;64853;53.200;6.080;2023-03-03T19:20:53;102631.94;;;19.19;40.57
76122;BME280;64853;53.200;6.080;2023-03-03T19:26:19;102630.38;;;19.23;40.62
76122;BME280;64853;53.200;6.080;2023-03-03T19:31:16;102634.97;;;19.17;40.19
76122;BME280;64853;53.200;6.080;2023-03-03T19:36:20;102639.16;;;19.20;40.37
76122;BME280;64853;53.200;6.080;2023-03-03T19:41:25;102643.81;;;19.19;40.56
76122;BME280;64853;53.200;6.080;2023-03-03T19:46:32;102644.25;;;19.28;41.37
76122;BME280;64853;53.200;6.080;2023-03-03T19:51:33;102649.53;;;19.29;40.64
76122;BME280;64853;53.200;6.080;2023-03-03T19:56:36;102631.63;;;19.15;41.42
76122;BME280;64853;53.200;6.080;2023-03-03T20:01:42;102634.97;;;19.17;40.65
76122;BME280;64853;53.200;6.080;2023-03-03T20:06:44;102644.69;;;19.20;40.87
76122;BME280;64853;53.200;6.080;2023-03-03T20:11:53;102634.13;;;19.17;40.20
76122;BME280;64853;53.200;6.080;2023-03-03T20:16:50;102643.56;;;19.21;40.22
76122;BME280;64853;53.200;6.080;2023-03-03T20:21:48;102654.69;;;19.26;40.47
76122;BME280;64853;53.200;6.080;2023-03-03T20:26:54;102657.75;;;19.24;40.35
76122;BME280;64853;53.200;6.080;2023-03-03T20:31:54;102662.75;;;19.27;40.08
76122;BME280;64853;53.200;6.080;2023-03-03T20:36:55;102659.16;;;19.27;40.06
76122;BME280;64853;53.200;6.080;2023-03-03T20:41:58;102637.91;;;19.10;40.41
76122;BME280;64853;53.200;6.080;2023-03-03T20:47:02;102655.31;;;19.11;40.32
76122;BME280;64853;53.200;6.080;2023-03-03T20:52:00;102635.88;;;18.89;40.22
76122;BME280;64853;53.200;6.080;2023-03-03T20:57:01;102658.91;;;18.95;40.65
76122;BME280;64853;53.200;6.080;2023-03-03T21:02:03;102657.13;;;18.88;40.32
76122;BME280;64853;53.200;6.080;2023-03-03T21:07:02;102667.25;;;18.83;40.56
76122;BME280;64853;53.200;6.080;2023-03-03T21:11:55;102639.84;;;18.64;40.40
76122;BME280;64853;53.200;6.080;2023-03-03T21:16:48;102663.19;;;18.73;40.66
76122;BME280;64853;53.200;6.080;2023-03-03T21:21:42;102659.00;;;18.71;40.28
76122;BME280;64853;53.200;6.080;2023-03-03T21:26:49;102663.59;;;18.65;40.77
76122;BME280;64853;53.200;6.080;2023-03-03T21:31:45;102656.03;;;18.61;40.61
76122;BME280;64853;53.200;6.080;2023-03-03T21:36:47;102660.88;;;18.53;40.26
76122;BME280;64853;53.200;6.080;2023-03-03T21:41:52;102652.63;;;18.42;40.51
76122;BME280;64853;53.200;6.080;2023-03-03T21:46:45;102666.31;;;18.48;40.40
76122;BME280;64853;53.200;6.080;2023-03-03T21:51:37;102625.25;;;18.23;40.52
76122;BME280;64853;53.200;6.080;2023-03-03T21:56:29;102657.72;;;18.33;40.50
76122;BME280;64853;53.200;6.080;2023-03-03T22:01:22;102670.78;;;18.37;40.37
76122;BME280;64853;53.200;6.080;2023-03-03T22:06:14;102660.25;;;18.34;40.43
76122;BME280;64853;53.200;6.080;2023-03-03T22:11:06;102667.09;;;18.32;40.44
76122;BME280;64853;53.200;6.080;2023-03-03T22:15:58;102664.22;;;18.27;40.43
76122;BME280;64853;53.200;6.080;2023-03-03T22:20:52;102654.16;;;18.20;40.43
76122;BME280;64853;53.200;6.080;2023-03-03T22:25:44;102670.47;;;18.22;40.16
76122;BME280;64853;53.200;6.080;2023-03-03T22:30:37;102644.75;;;18.05;40.51
76122;BME280;64853;53.200;6.080;2023-03-03T22:35:29;102662.59;;;18.14;40.41
76122;BME280;64853;53.200;6.080;2023-03-03T22:40:22;102665.84;;;18.11;40.19
76122;BME280;64853;53.200;6.080;2023-03-03T22:45:14;102667.16;;;18.08;40.48
76122;BME280;64853;53.200;6.080;2023-03-03T22:50:07;102666.81;;;18.05;40.40
76122;BME280;64853;53.200;6.080;2023-03-03T22:54:59;102659.50;;;17.98;40.25
76122;BME280;64853;53.200;6.080;2023-03-03T22:59:54;102656.75;;;17.98;40.45
76122;BME280;64853;53.200;6.080;2023-03-03T23:04:46;102659.72;;;17.97;40.13
76122;BME280;64853;53.200;6.080;2023-03-03T23:09:40;102660.19;;;17.94;40.37
76122;BME280;64853;53.200;6.080;2023-03-03T23:14:32;102647.38;;;17.88;40.05
76122;BME280;64853;53.200;6.080;2023-03-03T23:19:25;102651.00;;;17.88;40.10
76122;BME280;64853;53.200;6.080;2023-03-03T23:24:17;102638.53;;;17.74;40.15
76122;BME280;64853;53.200;6.080;2023-03-03T23:29:09;102650.25;;;17.81;40.19
76122;BME280;64853;53.200;6.080;2023-03-03T23:34:01;102647.41;;;17.76;40.32
76122;BME280;64853;53.200;6.080;2023-03-03T23:38:54;102622.25;;;17.60;40.07
76122;BME280;64853;53.200;6.080;2023-03-03T23:43:46;102656.75;;;17.75;40.37
76122;BME280;64853;53.200;6.080;2023-03-03T23:48:38;102650.53;;;17.67;40.17
76122;BME280;64853;53.200;6.080;2023-03-03T23:53:29;102646.69;;;17.68;40.17
76122;BME280;64853;53.200;6.080;2023-03-03T23:58:22;102626.59;;;17.56;40.22
